sensor_id;sensor_type;location;lat;lon;timestamp;pressure;altitude;pressure_sealevel;temperature;humidity
74544;BME280;63016;55.030;38.710;2023-11-21T00:01:35;99294.94;;;-5.32;63.49
74544;BME280;63016;55.030;38.710;2023-11-21T00:04:01;99287.25;;;-5.31;63.38
74544;BME280;63016;55.030;38.710;2023-11-21T00:06:27;99288.88;;;-5.30;63.44
74544;BME280;63016;55.030;38.710;2023-11-21T00:08:52;99277.06;;;-5.31;63.52
74544;BME280;63016;55.030;38.710;2023-11-21T00:11:18;99279.84;;;-5.35;63.42
74544;BME280;63016;55.030;38.710;2023-11-21T00:13:43;99283.88;;;-5.31;63.57
74544;BME280;63016;55.030;38.710;2023-11-21T00:16:09;99277.88;;;-5.30;63.49
74544;BME280;63016;55.030;38.710;2023-11-21T00:18:34;99272.22;;;-5.35;63.44
74544;BME280;63016;55.030;38.710;2023-11-21T00:21:01;99285.50;;;-5.30;63.48
74544;BME280;63016;55.030;38.710;2023-11-21T00:23:26;99276.97;;;-5.29;63.50
74544;BME280;63016;55.030;38.710;2023-11-21T00:25:52;99279.44;;;-5.28;63.39
74544;BME280;63016;55.030;38.710;2023-11-21T00:28:17;99276.25;;;-5.31;63.84
74544;BME280;63016;55.030;38.710;2023-11-21T00:30:43;99281.72;;;-5.23;63.56
74544;BME280;63016;55.030;38.710;2023-11-21T00:33:08;99274.09;;;-5.23;63.45
74544;BME280;63016;55.030;38.710;2023-11-21T00:35:34;99289.31;;;-5.22;63.26
74544;BME280;63016;55.030;38.710;2023-11-21T00:37:59;99277.88;;;-5.30;63.32
74544;BME280;63016;55.030;38.710;2023-11-21T00:40:25;99273.94;;;-5.36;63.02
74544;BME280;63016;55.030;38.710;2023-11-21T00:42:50;99288.13;;;-5.32;63.34
74544;BME280;63016;55.030;38.710;2023-11-21T00:45:15;99281.63;;;-5.37;62.98
74544;BME280;63016;55.030;38.710;2023-11-21T00:47:41;99289.03;;;-5.33;63.18
74544;BME280;63016;55.030;38.710;2023-11-21T00:50:08;99284.03;;;-5.34;63.19
74544;BME280;63016;55.030;38.710;2023-11-21T00:52:33;99284.19;;;-5.37;62.99
74544;BME280;63016;55.030;38.710;2023-11-21T00:54:59;99277.38;;;-5.37;63.18
74544;BME280;63016;55.030;38.710;2023-11-21T00:57:26;99279.03;;;-5.36;63.22
74544;BME280;63016;55.030;38.710;2023-11-21T00:59:51;99273.28;;;-5.39;63.15
74544;BME280;63016;55.030;38.710;2023-11-21T01:02:17;99272.47;;;-5.40;63.30
74544;BME280;63016;55.030;38.710;2023-11-21T01:04:42;99261.78;;;-5.47;63.01
74544;BME280;63016;55.030;38.710;2023-11-21T01:07:08;99261.63;;;-5.44;63.04
74544;BME280;63016;55.030;38.710;2023-11-21T01:09:34;99263.50;;;-5.47;62.98
74544;BME280;63016;55.030;38.710;2023-11-21T01:11:59;99266.94;;;-5.48;62.83
74544;BME280;63016;55.030;38.710;2023-11-21T01:14:25;99266.38;;;-5.53;63.18
74544;BME280;63016;55.030;38.710;2023-11-21T01:16:52;99259.75;;;-5.56;63.19
74544;BME280;63016;55.030;38.710;2023-11-21T01:19:17;99267.38;;;-5.56;63.13
74544;BME280;63016;55.030;38.710;2023-11-21T01:21:43;99269.00;;;-5.55;63.37
74544;BME280;63016;55.030;38.710;2023-11-21T01:24:08;99264.81;;;-5.56;63.03
74544;BME280;63016;55.030;38.710;2023-11-21T01:26:34;99264.72;;;-5.54;62.81
74544;BME280;63016;55.030;38.710;2023-11-21T01:28:59;99263.00;;;-5.54;63.24
74544;BME280;63016;55.030;38.710;2023-11-21T01:31:25;99259.66;;;-5.54;63.01
74544;BME280;63016;55.030;38.710;2023-11-21T01:33:54;99250.69;;;-5.61;63.02
74544;BME280;63016;55.030;38.710;2023-11-21T01:36:20;99259.13;;;-5.61;63.35
74544;BME280;63016;55.030;38.710;2023-11-21T01:38:46;99269.91;;;-5.56;63.01
74544;BME280;63016;55.030;38.710;2023-11-21T01:41:14;99268.25;;;-5.57;63.54
74544;BME280;63016;55.030;38.710;2023-11-21T01:43:40;99273.31;;;-5.57;63.43
74544;BME280;63016;55.030;38.710;2023-11-21T01:46:06;99289.16;;;-5.52;63.11
74544;BME280;63016;55.030;38.710;2023-11-21T01:48:33;99298.44;;;-5.51;63.37
74544;BME280;63016;55.030;38.710;2023-11-21T01:51:00;99302.94;;;-5.56;63.31
74544;BME280;63016;55.030;38.710;2023-11-21T01:53:26;99306.44;;;-5.58;63.15
74544;BME280;63016;55.030;38.710;2023-11-21T01:55:51;99314.81;;;-5.56;63.49
74544;BME280;63016;55.030;38.710;2023-11-21T01:58:19;99319.75;;;-5.53;63.36
74544;BME280;63016;55.030;38.710;2023-11-21T02:00:45;99313.94;;;-5.55;63.39
74544;BME280;63016;55.030;38.710;2023-11-21T02:03:10;99319.59;;;-5.50;63.54
74544;BME280;63016;55.030;38.710;2023-11-21T02:05:37;99311.38;;;-5.55;63.65
74544;BME280;63016;55.030;38.710;2023-11-21T02:08:03;99311.16;;;-5.51;63.00
74544;BME280;63016;55.030;38.710;2023-11-21T02:10:30;99309.34;;;-5.49;63.41
74544;BME280;63016;55.030;38.710;2023-11-21T02:12:56;99322.97;;;-5.50;63.43
74544;BME280;63016;55.030;38.710;2023-11-21T02:15:22;99321.97;;;-5.47;63.53
74544;BME280;63016;55.030;38.710;2023-11-21T02:17:49;99335.44;;;-5.45;63.34
74544;BME280;63016;55.030;38.710;2023-11-21T02:20:19;99330.34;;;-5.45;63.33
74544;BME280;63016;55.030;38.710;2023-11-21T02:22:56;99331.97;;;-5.44;63.25
74544;BME280;63016;55.030;38.710;2023-11-21T02:25:31;99333.94;;;-5.49;63.39
74544;BME280;63016;55.030;38.710;2023-11-21T02:27:59;99328.84;;;-5.49;63.56
74544;BME280;63016;55.030;38.710;2023-11-21T02:30:25;99326.09;;;-5.45;63.78
74544;BME280;63016;55.030;38.710;2023-11-21T02:32:51;99325.91;;;-5.42;63.68
74544;BME280;63016;55.030;38.710;2023-11-21T02:35:20;99314.09;;;-5.43;63.46
74544;BME280;63016;55.030;38.710;2023-11-21T02:37:49;99320.81;;;-5.42;63.48
74544;BME280;63016;55.030;38.710;2023-11-21T02:40:15;99301.00;;;-5.51;63.45
74544;BME280;63016;55.030;38.710;2023-11-21T02:42:46;99325.75;;;-5.38;63.54
74544;BME280;63016;55.030;38.710;2023-11-21T02:45:13;99311.50;;;-5.41;63.22
74544;BME280;63016;55.030;38.710;2023-11-21T02:47:42;99311.56;;;-5.43;63.24
74544;BME280;63016;55.030;38.710;2023-11-21T02:50:08;99316.59;;;-5.41;63.33
74544;BME280;63016;55.030;38.710;2023-11-21T02:52:34;99313.13;;;-5.40;63.26
74544;BME280;63016;55.030;38.710;2023-11-21T02:55:01;99313.28;;;-5.43;63.56
74544;BME280;63016;55.030;38.710;2023-11-21T02:57:27;99327.47;;;-5.39;63.36
74544;BME280;63016;55.030;38.710;2023-11-21T02:59:53;99316.81;;;-5.46;63.34
74544;BME280;63016;55.030;38.710;2023-11-21T03:02:20;99327.56;;;-5.40;63.51
74544;BME280;63016;55.030;38.710;2023-11-21T03:04:45;99319.19;;;-5.43;63.64
74544;BME280;63016;55.030;38.710;2023-11-21T03:07:11;99317.41;;;-5.40;63.60
74544;BME280;63016;55.030;38.710;2023-11-21T03:09:36;99326.53;;;-5.36;63.54
74544;BME280;63016;55.030;38.710;2023-11-21T03:12:02;99335.59;;;-5.32;63.46
74544;BME280;63016;55.030;38.710;2023-11-21T03:14:27;99329.06;;;-5.36;63.41
74544;BME280;63016;55.030;38.710;2023-11-21T03:16:53;99342.41;;;-5.33;63.37
74544;BME280;63016;55.030;38.710;2023-11-21T03:19:18;99346.69;;;-5.33;63.42
74544;BME280;63016;55.030;38.710;2023-11-21T03:21:44;99357.03;;;-5.36;63.51
74544;BME280;63016;55.030;38.710;2023-11-21T03:24:09;99360.22;;;-5.33;63.39
74544;BME280;63016;55.030;38.710;2023-11-21T03:26:35;99370.38;;;-5.33;63.43
74544;BME280;63016;55.030;38.710;2023-11-21T03:29:02;99383.69;;;-5.28;63.24
74544;BME280;63016;55.030;38.710;2023-11-21T03:31:28;99390.66;;;-5.31;63.45
74544;BME280;63016;55.030;38.710;2023-11-21T03:33:53;99393.22;;;-5.31;63.50
74544;BME280;63016;55.030;38.710;2023-11-21T03:36:19;99379.28;;;-5.42;63.47
74544;BME280;63016;55.030;38.710;2023-11-21T03:38:45;99394.09;;;-5.32;63.28
74544;BME280;63016;55.030;38.710;2023-11-21T03:41:11;99399.94;;;-5.30;63.49
74544;BME280;63016;55.030;38.710;2023-11-21T03:43:37;99392.44;;;-5.33;63.25
74544;BME280;63016;55.030;38.710;2023-11-21T03:46:03;99395.81;;;-5.33;63.62
74544;BME280;63016;55.030;38.710;2023-11-21T03:48:28;99378.00;;;-5.33;63.31
74544;BME280;63016;55.030;38.710;2023-11-21T03:50:53;99378.19;;;-5.36;63.55
74544;BME280;63016;55.030;38.710;2023-11-21T03:53:19;99387.38;;;-5.33;63.36
74544;BME280;63016;55.030;38.710;2023-11-21T03:55:44;99377.44;;;-5.38;63.32
74544;BME280;63016;55.030;38.710;2023-11-21T03:58:10;99384.16;;;-5.37;62.97
74544;BME280;63016;55.030;38.710;2023-11-21T04:00:35;99370.94;;;-5.44;63.23
74544;BME280;63016;55.030;38.710;2023-11-21T04:03:01;99369.38;;;-5.46;63.35
74544;BME280;63016;55.030;38.710;2023-11-21T04:05:26;99375.09;;;-5.43;63.46
74544;BME280;63016;55.030;38.710;2023-11-21T04:07:52;99368.72;;;-5.50;63.52
74544;BME280;63016;55.030;38.710;2023-11-21T04:10:17;99371.75;;;-5.43;63.48
74544;BME280;63016;55.030;38.710;2023-11-21T04:12:43;99378.31;;;-5.39;63.23
74544;BME280;63016;55.030;38.710;2023-11-21T04:15:10;99375.78;;;-5.39;63.55
74544;BME280;63016;55.030;38.710;2023-11-21T04:17:36;99365.13;;;-5.46;63.21
74544;BME280;63016;55.030;38.710;2023-11-21T04:20:03;99368.25;;;-5.40;63.06
74544;BME280;63016;55.030;38.710;2023-11-21T04:22:33;99375.09;;;-5.43;62.95
74544;BME280;63016;55.030;38.710;2023-11-21T04:24:59;99390.22;;;-5.39;63.07
74544;BME280;63016;55.030;38.710;2023-11-21T04:27:24;99374.28;;;-5.43;63.35
74544;BME280;63016;55.030;38.710;2023-11-21T04:29:49;99370.84;;;-5.42;63.27
74544;BME280;63016;55.030;38.710;2023-11-21T04:32:15;99370.94;;;-5.44;63.17
74544;BME280;63016;55.030;38.710;2023-11-21T04:34:41;99365.13;;;-5.46;63.19
74544;BME280;63016;55.030;38.710;2023-11-21T04:37:06;99360.91;;;-5.47;62.99
74544;BME280;63016;55.030;38.710;2023-11-21T04:39:32;99369.63;;;-5.51;63.01
74544;BME280;63016;55.030;38.710;2023-11-21T04:41:57;99368.94;;;-5.54;63.37
74544;BME280;63016;55.030;38.710;2023-11-21T04:44:23;99377.28;;;-5.52;63.37
74544;BME280;63016;55.030;38.710;2023-11-21T04:46:48;99392.50;;;-5.51;63.44
74544;BME280;63016;55.030;38.710;2023-11-21T04:49:14;99382.84;;;-5.61;63.41
74544;BME280;63016;55.030;38.710;2023-11-21T04:51:40;99386.72;;;-5.54;63.31
74544;BME280;63016;55.030;38.710;2023-11-21T04:54:05;99411.84;;;-5.48;63.24
74544;BME280;63016;55.030;38.710;2023-11-21T04:56:31;99408.47;;;-5.49;63.27
74544;BME280;63016;55.030;38.710;2023-11-21T04:58:57;99397.56;;;-5.51;63.28
74544;BME280;63016;55.030;38.710;2023-11-21T05:01:22;99408.34;;;-5.46;63.51
74544;BME280;63016;55.030;38.710;2023-11-21T05:03:48;99397.25;;;-5.45;63.44
74544;BME280;63016;55.030;38.710;2023-11-21T05:06:14;99408.34;;;-5.46;63.63
74544;BME280;63016;55.030;38.710;2023-11-21T05:08:40;99402.47;;;-5.48;63.31
74544;BME280;63016;55.030;38.710;2023-11-21T05:11:05;99401.59;;;-5.47;63.33
74544;BME280;63016;55.030;38.710;2023-11-21T05:13:34;99385.16;;;-5.57;63.39
74544;BME280;63016;55.030;38.710;2023-11-21T05:15:59;99410.06;;;-5.46;63.16
74544;BME280;63016;55.030;38.710;2023-11-21T05:18:25;99408.38;;;-5.47;63.15
74544;BME280;63016;55.030;38.710;2023-11-21T05:20:55;99422.69;;;-5.45;63.13
74544;BME280;63016;55.030;38.710;2023-11-21T05:23:21;99415.19;;;-5.48;63.32
74544;BME280;63016;55.030;38.710;2023-11-21T05:25:47;99421.88;;;-5.45;63.09
74544;BME280;63016;55.030;38.710;2023-11-21T05:28:12;99424.41;;;-5.45;63.42
74544;BME280;63016;55.030;38.710;2023-11-21T05:30:38;99426.28;;;-5.49;63.32
74544;BME280;63016;55.030;38.710;2023-11-21T05:33:05;99433.59;;;-5.43;63.48
74544;BME280;63016;55.030;38.710;2023-11-21T05:35:30;99435.22;;;-5.42;63.33
74544;BME280;63016;55.030;38.710;2023-11-21T05:37:56;99436.81;;;-5.39;63.34
74544;BME280;63016;55.030;38.710;2023-11-21T05:40:22;99431.34;;;-5.49;63.17
74544;BME280;63016;55.030;38.710;2023-11-21T05:42:47;99440.25;;;-5.40;63.55
74544;BME280;63016;55.030;38.710;2023-11-21T05:45:13;99445.16;;;-5.37;63.36
74544;BME280;63016;55.030;38.710;2023-11-21T05:47:45;99442.56;;;-5.35;63.53
74544;BME280;63016;55.030;38.710;2023-11-21T05:50:13;99445.25;;;-5.38;63.41
74544;BME280;63016;55.030;38.710;2023-11-21T05:52:43;99434.16;;;-5.37;63.57
74544;BME280;63016;55.030;38.710;2023-11-21T05:55:09;99449.19;;;-5.33;63.47
74544;BME280;63016;55.030;38.710;2023-11-21T05:57:39;99448.25;;;-5.30;63.54
74544;BME280;63016;55.030;38.710;2023-11-21T06:00:06;99445.84;;;-5.33;63.36
74544;BME280;63016;55.030;38.710;2023-11-21T06:02:58;99446.44;;;-5.28;63.14
74544;BME280;63016;55.030;38.710;2023-11-21T06:05:25;99432.16;;;-5.31;63.44
74544;BME280;63016;55.030;38.710;2023-11-21T06:07:51;99427.91;;;-5.30;63.46
74544;BME280;63016;55.030;38.710;2023-11-21T06:10:21;99433.66;;;-5.27;63.55
74544;BME280;63016;55.030;38.710;2023-11-21T06:12:46;99442.84;;;-5.24;63.70
74544;BME280;63016;55.030;38.710;2023-11-21T06:15:12;99438.53;;;-5.22;63.40
74544;BME280;63016;55.030;38.710;2023-11-21T06:17:44;99438.56;;;-5.24;63.21
74544;BME280;63016;55.030;38.710;2023-11-21T06:20:14;99439.41;;;-5.23;63.29
74544;BME280;63016;55.030;38.710;2023-11-21T06:22:41;99441.94;;;-5.23;63.56
74544;BME280;63016;55.030;38.710;2023-11-21T06:25:08;99448.53;;;-5.19;63.60
74544;BME280;63016;55.030;38.710;2023-11-21T06:27:39;99446.72;;;-5.17;63.79
74544;BME280;63016;55.030;38.710;2023-11-21T06:30:05;99439.84;;;-5.15;63.65
74544;BME280;63016;55.030;38.710;2023-11-21T06:32:32;99437.38;;;-5.17;63.33
74544;BME280;63016;55.030;38.710;2023-11-21T06:34:57;99442.47;;;-5.17;63.67
74544;BME280;63016;55.030;38.710;2023-11-21T06:37:26;99446.72;;;-5.17;63.34
74544;BME280;63016;55.030;38.710;2023-11-21T06:39:52;99438.94;;;-5.14;63.22
74544;BME280;63016;55.030;38.710;2023-11-21T06:42:18;99441.34;;;-5.11;63.42
74544;BME280;63016;55.030;38.710;2023-11-21T06:44:47;99433.13;;;-5.16;63.36
74544;BME280;63016;55.030;38.710;2023-11-21T06:47:13;99439.53;;;-5.09;63.53
74544;BME280;63016;55.030;38.710;2023-11-21T06:49:39;99450.47;;;-5.07;63.84
74544;BME280;63016;55.030;38.710;2023-11-21T06:52:04;99440.28;;;-5.07;63.77
74544;BME280;63016;55.030;38.710;2023-11-21T06:54:34;99447.00;;;-5.06;63.50
74544;BME280;63016;55.030;38.710;2023-11-21T06:57:00;99453.72;;;-5.05;63.42
74544;BME280;63016;55.030;38.710;2023-11-21T06:59:26;99466.22;;;-5.00;63.51
74544;BME280;63016;55.030;38.710;2023-11-21T07:01:53;99464.56;;;-5.01;63.29
74544;BME280;63016;55.030;38.710;2023-11-21T07:04:19;99470.41;;;-4.99;63.20
74544;BME280;63016;55.030;38.710;2023-11-21T07:06:45;99477.38;;;-5.03;63.43
74544;BME280;63016;55.030;38.710;2023-11-21T07:09:11;99441.41;;;-5.12;63.19
74544;BME280;63016;55.030;38.710;2023-11-21T07:11:37;99451.19;;;-5.05;63.36
74544;BME280;63016;55.030;38.710;2023-11-21T07:14:04;99451.94;;;-5.03;62.98
74544;BME280;63016;55.030;38.710;2023-11-21T07:16:34;99456.78;;;-4.98;63.75
74544;BME280;63016;55.030;38.710;2023-11-21T07:19:05;99465.31;;;-4.99;63.55
74544;BME280;63016;55.030;38.710;2023-11-21T07:21:34;99459.25;;;-4.97;63.43
74544;BME280;63016;55.030;38.710;2023-11-21T07:24:00;99468.53;;;-4.96;63.56
74544;BME280;63016;55.030;38.710;2023-11-21T07:26:32;99470.97;;;-4.94;63.25
74544;BME280;63016;55.030;38.710;2023-11-21T07:28:59;99476.88;;;-4.94;63.38
74544;BME280;63016;55.030;38.710;2023-11-21T07:31:24;99472.72;;;-4.95;63.37
74544;BME280;63016;55.030;38.710;2023-11-21T07:33:50;99487.84;;;-4.92;63.37
74544;BME280;63016;55.030;38.710;2023-11-21T07:36:16;99483.47;;;-4.89;63.68
74544;BME280;63016;55.030;38.710;2023-11-21T07:38:43;99490.88;;;-4.85;63.57
74544;BME280;63016;55.030;38.710;2023-11-21T07:41:10;99490.81;;;-4.83;63.47
74544;BME280;63016;55.030;38.710;2023-11-21T07:43:36;99497.47;;;-4.81;63.37
74544;BME280;63016;55.030;38.710;2023-11-21T07:46:02;99495.66;;;-4.79;63.54
74544;BME280;63016;55.030;38.710;2023-11-21T07:48:31;99499.91;;;-4.79;63.83
74544;BME280;63016;55.030;38.710;2023-11-21T07:50:58;99502.41;;;-4.78;64.04
74544;BME280;63016;55.030;38.710;2023-11-21T07:53:24;99506.44;;;-4.74;63.65
74544;BME280;63016;55.030;38.710;2023-11-21T07:55:51;99499.78;;;-4.76;63.75
74544;BME280;63016;55.030;38.710;2023-11-21T07:58:17;99513.06;;;-4.71;63.71
74544;BME280;63016;55.030;38.710;2023-11-21T08:00:43;99503.63;;;-4.69;63.92
74544;BME280;63016;55.030;38.710;2023-11-21T08:03:08;99500.22;;;-4.68;63.84
74544;BME280;63016;55.030;38.710;2023-11-21T08:05:34;99501.69;;;-4.64;63.89
74544;BME280;63016;55.030;38.710;2023-11-21T08:07:59;99504.97;;;-4.62;63.89
74544;BME280;63016;55.030;38.710;2023-11-21T08:10:25;99511.31;;;-4.53;63.75
74544;BME280;63016;55.030;38.710;2023-11-21T08:12:51;99506.13;;;-4.52;63.83
74544;BME280;63016;55.030;38.710;2023-11-21T08:15:17;99506.00;;;-4.49;63.76
74544;BME280;63016;55.030;38.710;2023-11-21T08:17:43;99497.59;;;-4.51;63.62
74544;BME280;63016;55.030;38.710;2023-11-21T08:20:09;99495.00;;;-4.49;63.55
74544;BME280;63016;55.030;38.710;2023-11-21T08:22:36;99506.72;;;-4.47;63.38
74544;BME280;63016;55.030;38.710;2023-11-21T08:25:02;99506.81;;;-4.48;63.49
74544;BME280;63016;55.030;38.710;2023-11-21T08:27:29;99494.13;;;-4.50;63.62
74544;BME280;63016;55.030;38.710;2023-11-21T08:29:55;99503.44;;;-4.49;63.93
74544;BME280;63016;55.030;38.710;2023-11-21T08:32:22;99495.56;;;-4.44;63.55
74544;BME280;63016;55.030;38.710;2023-11-21T08:34:47;99488.66;;;-4.42;63.63
74544;BME280;63016;55.030;38.710;2023-11-21T08:37:16;99486.09;;;-4.42;63.57
74544;BME280;63016;55.030;38.710;2023-11-21T08:39:44;99482.00;;;-4.45;63.97
74544;BME280;63016;55.030;38.710;2023-11-21T08:42:09;99484.13;;;-4.37;63.56
74544;BME280;63016;55.030;38.710;2023-11-21T08:44:35;99484.91;;;-4.35;63.70
74544;BME280;63016;55.030;38.710;2023-11-21T08:47:00;99475.78;;;-4.39;63.67
74544;BME280;63016;55.030;38.710;2023-11-21T08:49:26;99467.22;;;-4.38;63.47
74544;BME280;63016;55.030;38.710;2023-11-21T08:51:53;99476.41;;;-4.35;63.47
74544;BME280;63016;55.030;38.710;2023-11-21T08:54:20;99468.94;;;-4.38;63.80
74544;BME280;63016;55.030;38.710;2023-11-21T08:56:46;99479.63;;;-4.32;63.57
74544;BME280;63016;55.030;38.710;2023-11-21T08:59:13;99468.78;;;-4.35;63.84
74544;BME280;63016;55.030;38.710;2023-11-21T09:01:39;99473.56;;;-4.29;63.32
74544;BME280;63016;55.030;38.710;2023-11-21T09:04:05;99486.09;;;-4.26;63.68
74544;BME280;63016;55.030;38.710;2023-11-21T09:06:30;99476.94;;;-4.29;63.60
74544;BME280;63016;55.030;38.710;2023-11-21T09:08:56;99476.97;;;-4.30;63.61
74544;BME280;63016;55.030;38.710;2023-11-21T09:11:21;99483.50;;;-4.25;63.63
74544;BME280;63016;55.030;38.710;2023-11-21T09:13:47;99474.44;;;-4.30;63.87
74544;BME280;63016;55.030;38.710;2023-11-21T09:16:14;99483.56;;;-4.26;63.76
74544;BME280;63016;55.030;38.710;2023-11-21T09:18:40;99487.59;;;-4.22;63.48
74544;BME280;63016;55.030;38.710;2023-11-21T09:21:06;99487.59;;;-4.22;63.88
74544;BME280;63016;55.030;38.710;2023-11-21T09:23:31;99485.81;;;-4.20;63.99
74544;BME280;63016;55.030;38.710;2023-11-21T09:25:57;99489.81;;;-4.16;63.78
74544;BME280;63016;55.030;38.710;2023-11-21T09:28:25;99490.47;;;-4.13;64.06
74544;BME280;63016;55.030;38.710;2023-11-21T09:30:53;99503.72;;;-4.06;63.91
74544;BME280;63016;55.030;38.710;2023-11-21T09:33:18;99505.34;;;-4.05;64.07
74544;BME280;63016;55.030;38.710;2023-11-21T09:35:44;99502.81;;;-4.05;63.93
74544;BME280;63016;55.030;38.710;2023-11-21T09:38:10;99482.81;;;-4.13;63.51
74544;BME280;63016;55.030;38.710;2023-11-21T09:40:36;99504.34;;;-4.02;63.72
74544;BME280;63016;55.030;38.710;2023-11-21T09:43:07;99508.53;;;-4.01;63.85
74544;BME280;63016;55.030;38.710;2023-11-21T09:45:38;99504.91;;;-3.97;63.54
74544;BME280;63016;55.030;38.710;2023-11-21T09:48:05;99506.75;;;-3.99;63.29
74544;BME280;63016;55.030;38.710;2023-11-21T09:50:32;99500.00;;;-4.00;63.53
74544;BME280;63016;55.030;38.710;2023-11-21T09:53:18;99499.75;;;-3.96;63.44
74544;BME280;63016;55.030;38.710;2023-11-21T09:55:51;99503.03;;;-3.94;63.47
74544;BME280;63016;55.030;38.710;2023-11-21T09:58:17;99497.94;;;-3.94;63.68
74544;BME280;63016;55.030;38.710;2023-11-21T10:00:45;99504.88;;;-3.96;63.66
74544;BME280;63016;55.030;38.710;2023-11-21T10:03:12;99505.59;;;-3.94;63.82
74544;BME280;63016;55.030;38.710;2023-11-21T10:05:38;99499.81;;;-3.97;63.65
74544;BME280;63016;55.030;38.710;2023-11-21T10:08:08;99510.53;;;-3.91;63.60
74544;BME280;63016;55.030;38.710;2023-11-21T10:10:36;99505.50;;;-3.92;63.79
74544;BME280;63016;55.030;38.710;2023-11-21T10:13:04;99506.41;;;-3.93;63.61
74544;BME280;63016;55.030;38.710;2023-11-21T10:15:35;99506.50;;;-3.95;63.54
74544;BME280;63016;55.030;38.710;2023-11-21T10:18:06;99498.84;;;-3.95;63.52
74544;BME280;63016;55.030;38.710;2023-11-21T10:20:33;99507.06;;;-3.90;63.57
74544;BME280;63016;55.030;38.710;2023-11-21T10:23:00;99515.78;;;-3.94;63.58
74544;BME280;63016;55.030;38.710;2023-11-21T10:25:29;99515.78;;;-3.94;63.49
74544;BME280;63016;55.030;38.710;2023-11-21T10:27:58;99516.53;;;-3.92;63.62
74544;BME280;63016;55.030;38.710;2023-11-21T10:30:36;99508.03;;;-3.92;63.56
74544;BME280;63016;55.030;38.710;2023-11-21T10:33:04;99503.84;;;-3.93;63.56
74544;BME280;63016;55.030;38.710;2023-11-21T10:35:45;99526.38;;;-3.85;63.77
74544;BME280;63016;55.030;38.710;2023-11-21T10:38:18;99512.97;;;-3.89;63.88
74544;BME280;63016;55.030;38.710;2023-11-21T10:40:46;99513.06;;;-3.91;63.82
74544;BME280;63016;55.030;38.710;2023-11-21T10:43:13;99513.72;;;-3.87;63.64
74544;BME280;63016;55.030;38.710;2023-11-21T10:45:40;99514.47;;;-3.85;63.64
74544;BME280;63016;55.030;38.710;2023-11-21T10:48:06;99517.16;;;-3.88;63.31
74544;BME280;63016;55.030;38.710;2023-11-21T10:50:43;99518.81;;;-3.87;63.67
74544;BME280;63016;55.030;38.710;2023-11-21T10:53:09;99521.28;;;-3.85;63.49
74544;BME280;63016;55.030;38.710;2023-11-21T10:55:37;99522.19;;;-3.86;63.46
74544;BME280;63016;55.030;38.710;2023-11-21T10:58:03;99526.38;;;-3.85;63.36
74544;BME280;63016;55.030;38.710;2023-11-21T11:00:31;99527.22;;;-3.85;63.42
74544;BME280;63016;55.030;38.710;2023-11-21T11:02:57;99519.97;;;-3.93;63.74
74544;BME280;63016;55.030;38.710;2023-11-21T11:05:27;99526.44;;;-3.87;63.65
74544;BME280;63016;55.030;38.710;2023-11-21T11:08:07;99527.94;;;-3.83;63.43
74544;BME280;63016;55.030;38.710;2023-11-21T11:10:33;99531.50;;;-3.85;63.33
74544;BME280;63016;55.030;38.710;2023-11-21T11:13:00;99531.63;;;-3.89;63.55
74544;BME280;63016;55.030;38.710;2023-11-21T11:15:27;99529.19;;;-3.90;63.36
74544;BME280;63016;55.030;38.710;2023-11-21T11:17:54;99525.88;;;-3.92;62.92
74544;BME280;63016;55.030;38.710;2023-11-21T11:20:23;99529.19;;;-3.90;63.42
74544;BME280;63016;55.030;38.710;2023-11-21T11:23:19;99526.72;;;-3.92;63.41
74544;BME280;63016;55.030;38.710;2023-11-21T11:29:10;99518.91;;;-4.04;62.76
74544;BME280;63016;55.030;38.710;2023-11-21T11:34:17;99524.97;;;-4.07;63.00
74544;BME280;63016;55.030;38.710;2023-11-21T11:36:49;99520.13;;;-4.11;63.19
74544;BME280;63016;55.030;38.710;2023-11-21T11:39:38;99504.50;;;-4.21;62.72
74544;BME280;63016;55.030;38.710;2023-11-21T11:42:16;99528.94;;;-4.17;63.12
74544;BME280;63016;55.030;38.710;2023-11-21T11:47:26;99527.53;;;-4.23;63.11
74544;BME280;63016;55.030;38.710;2023-11-21T11:50:12;99524.88;;;-4.21;62.90
74544;BME280;63016;55.030;38.710;2023-11-21T11:55:15;99533.44;;;-4.22;63.05
74544;BME280;63016;55.030;38.710;2023-11-21T11:57:49;99535.41;;;-4.27;63.53
74544;BME280;63016;55.030;38.710;2023-11-21T12:00:18;99547.09;;;-4.23;63.71
74544;BME280;63016;55.030;38.710;2023-11-21T12:02:54;99547.81;;;-4.21;63.25
74544;BME280;63016;55.030;38.710;2023-11-21T12:05:22;99551.19;;;-4.21;63.73
74544;BME280;63016;55.030;38.710;2023-11-21T12:07:58;99549.72;;;-4.25;63.60
74544;BME280;63016;55.030;38.710;2023-11-21T12:10:26;99552.19;;;-4.23;63.38
74544;BME280;63016;55.030;38.710;2023-11-21T12:13:00;99563.78;;;-4.18;63.36
74544;BME280;63016;55.030;38.710;2023-11-21T12:15:27;99562.13;;;-4.19;63.17
74544;BME280;63016;55.030;38.710;2023-11-21T12:17:57;99566.47;;;-4.21;63.45
74544;BME280;63016;55.030;38.710;2023-11-21T12:20:24;99568.13;;;-4.20;63.55
74544;BME280;63016;55.030;38.710;2023-11-21T12:22:54;99573.38;;;-4.23;63.60
74544;BME280;63016;55.030;38.710;2023-11-21T12:25:27;99578.38;;;-4.21;63.62
74544;BME280;63016;55.030;38.710;2023-11-21T12:27:58;99578.97;;;-4.16;63.01
74544;BME280;63016;55.030;38.710;2023-11-21T12:30:27;99573.22;;;-4.20;63.45
74544;BME280;63016;55.030;38.710;2023-11-21T12:32:56;99570.00;;;-4.23;63.38
74544;BME280;63016;55.030;38.710;2023-11-21T12:35:25;99586.03;;;-4.21;63.17
74544;BME280;63016;55.030;38.710;2023-11-21T12:37:51;99582.03;;;-4.25;62.96
74544;BME280;63016;55.030;38.710;2023-11-21T12:40:18;99586.19;;;-4.24;63.18
74544;BME280;63016;55.030;38.710;2023-11-21T12:42:48;99576.16;;;-4.27;63.43
74544;BME280;63016;55.030;38.710;2023-11-21T12:50:11;99586.13;;;-4.23;63.74
74544;BME280;63016;55.030;38.710;2023-11-21T12:52:46;99581.25;;;-4.27;63.31
74544;BME280;63016;55.030;38.710;2023-11-21T12:55:18;99585.28;;;-4.23;63.39
74544;BME280;63016;55.030;38.710;2023-11-21T12:57:44;99579.72;;;-4.30;63.27
74544;BME280;63016;55.030;38.710;2023-11-21T13:00:11;99596.63;;;-4.29;63.09
74544;BME280;63016;55.030;38.710;2023-11-21T13:02:43;99594.22;;;-4.32;63.04
74544;BME280;63016;55.030;38.710;2023-11-21T13:05:09;99600.22;;;-4.33;63.23
74544;BME280;63016;55.030;38.710;2023-11-21T13:07:46;99608.69;;;-4.32;63.29